createdAt,value
2019-03-22T00:00:20.351Z,7.20
2019-03-22T00:02:48.778Z,7.30
2019-03-22T00:05:17.172Z,7.83
2019-03-22T00:07:45.573Z,7.33
2019-03-22T00:10:13.986Z,7.53
2019-03-22T00:12:42.391Z,6.60
2019-03-22T00:15:11.625Z,6.93
2019-03-22T00:17:40.051Z,7.30
2019-03-22T00:20:08.795Z,7.03
2019-03-22T00:22:37.219Z,7.00
2019-03-22T00:25:07.113Z,6.97
2019-03-22T00:27:35.506Z,7.47
2019-03-22T00:30:08.545Z,6.40
2019-03-22T00:32:36.996Z,6.80
2019-03-22T00:35:08.620Z,6.73
2019-03-22T00:37:37.008Z,7.07
2019-03-22T00:40:08.036Z,6.67
2019-03-22T00:42:36.421Z,6.67
2019-03-22T00:45:08.912Z,6.67
2019-03-22T00:47:37.304Z,6.30
2019-03-22T00:50:08.905Z,6.73
2019-03-22T00:52:37.433Z,6.10
2019-03-22T00:55:06.779Z,6.77
2019-03-22T00:57:35.174Z,6.53
2019-03-22T01:00:06.493Z,6.50
2019-03-22T01:02:34.883Z,6.07
2019-03-22T01:05:04.219Z,6.13
2019-03-22T01:07:32.636Z,6.43
2019-03-22T01:10:01.029Z,6.70
2019-03-22T01:12:29.441Z,6.37
2019-03-22T01:14:57.834Z,6.23
2019-03-22T01:17:26.260Z,6.13
2019-03-22T01:19:54.753Z,6.10
2019-03-22T01:22:23.145Z,6.53
2019-03-22T01:24:51.564Z,5.37
2019-03-22T01:27:19.959Z,6.17
2019-03-22T01:29:48.385Z,5.83
2019-03-22T01:32:16.853Z,6.23
2019-03-22T01:34:45.245Z,6.30
2019-03-22T01:37:13.825Z,6.43
2019-03-22T01:39:42.234Z,6.10
2019-03-22T01:42:10.616Z,6.60
2019-03-22T01:44:39.056Z,7.10
2019-03-22T01:47:07.433Z,7.00
2019-03-22T01:49:35.911Z,7.33
2019-03-22T01:52:04.433Z,7.17
2019-03-22T01:54:32.873Z,7.03
2019-03-22T01:57:01.260Z,6.60
2019-03-22T01:59:29.680Z,6.33
2019-03-22T02:01:58.064Z,6.40
2019-03-22T02:04:26.464Z,6.47
2019-03-22T02:06:54.898Z,5.73
2019-03-22T02:09:23.561Z,6.43
2019-03-22T02:11:52.250Z,5.83
2019-03-22T02:14:20.649Z,5.67
2019-03-22T02:16:49.105Z,5.83
2019-03-22T02:19:17.512Z,6.33
2019-03-22T02:21:45.912Z,6.20
2019-03-22T02:24:14.379Z,5.97
2019-03-22T02:26:42.797Z,6.87
2019-03-22T02:29:11.189Z,6.30
2019-03-22T02:31:39.582Z,6.63
2019-03-22T02:36:53.224Z,6.47
2019-03-22T02:39:21.814Z,6.57
2019-03-22T02:41:50.255Z,6.27
2019-03-22T02:44:18.655Z,6.43
2019-03-22T02:46:47.174Z,6.93
2019-03-22T02:49:15.630Z,6.13
2019-03-22T02:51:44.029Z,6.63
2019-03-22T02:54:12.426Z,6.58
2019-03-22T02:56:40.936Z,7.27
2019-03-22T02:59:09.336Z,7.13
2019-03-22T03:01:37.957Z,6.60
2019-03-22T03:04:06.363Z,6.10
2019-03-22T03:06:34.763Z,6.53
2019-03-22T03:09:04.328Z,6.10
2019-03-22T03:11:32.750Z,6.23
2019-03-22T03:14:01.191Z,6.10
2019-03-22T03:16:29.586Z,6.30
2019-03-22T03:18:58.005Z,6.20
2019-03-22T03:21:26.419Z,6.23
2019-03-22T03:23:54.822Z,6.90
2019-03-22T03:26:23.232Z,6.27
2019-03-22T03:28:51.732Z,6.30
2019-03-22T03:31:20.333Z,6.17
2019-03-22T03:33:48.729Z,6.67
2019-03-22T03:36:17.386Z,6.35
2019-03-22T03:38:45.783Z,7.23
2019-03-22T03:41:14.173Z,6.33
2019-03-22T03:43:42.597Z,7.00
2019-03-22T03:46:11.128Z,6.73
2019-03-22T03:48:39.531Z,6.47
2019-03-22T03:51:07.936Z,6.77
2019-03-22T03:53:36.445Z,7.43
2019-03-22T03:56:05.035Z,7.17
2019-03-22T03:58:33.435Z,7.77
2019-03-22T04:01:01.845Z,7.87
2019-03-22T04:03:30.275Z,7.17
2019-03-22T04:05:58.685Z,7.30
2019-03-22T04:08:27.083Z,7.47
2019-03-22T04:10:55.538Z,7.60
2019-03-22T04:13:23.994Z,7.60
2019-03-22T04:15:52.437Z,8.00
2019-03-22T04:18:20.831Z,7.30
2019-03-22T04:20:49.258Z,7.90
2019-03-22T04:23:17.746Z,8.00
2019-03-22T04:25:46.162Z,7.20
2019-03-22T04:28:16.197Z,7.57
2019-03-22T04:30:44.700Z,8.10
2019-03-22T04:33:13.114Z,7.67
2019-03-22T04:35:41.607Z,7.57
2019-03-22T04:38:10.017Z,7.70
2019-03-22T04:40:38.416Z,7.73
2019-03-22T04:43:06.810Z,7.27
2019-03-22T04:45:36.609Z,7.67
2019-03-22T04:48:13.863Z,7.30
2019-03-22T04:50:43.826Z,7.67
2019-03-22T04:53:15.293Z,7.90
2019-03-22T04:55:47.103Z,7.33
2019-03-22T04:58:17.021Z,7.30
2019-03-22T05:00:46.149Z,7.37
2019-03-22T05:03:14.825Z,7.10
2019-03-22T05:05:44.319Z,7.23
2019-03-22T05:08:15.355Z,7.40
2019-03-22T05:10:45.156Z,7.37
2019-03-22T05:13:16.102Z,7.53
2019-03-22T05:15:44.865Z,6.90
2019-03-22T05:18:13.346Z,7.30
2019-03-22T05:20:44.221Z,7.57
2019-03-22T05:23:14.353Z,7.70
2019-03-22T05:25:44.728Z,7.40
2019-03-22T05:28:14.076Z,7.60
2019-03-22T05:30:51.576Z,7.10
2019-03-22T05:33:19.965Z,7.70
2019-03-22T05:35:48.477Z,7.33
2019-03-22T05:38:16.878Z,7.70
2019-03-22T05:40:45.310Z,7.23
2019-03-22T05:43:13.742Z,7.97
2019-03-22T05:45:42.168Z,7.50
2019-03-22T05:48:10.570Z,8.30
2019-03-22T05:50:39.069Z,7.73
2019-03-22T05:53:07.498Z,7.87
2019-03-22T05:55:35.913Z,7.93
2019-03-22T05:58:04.305Z,7.47
2019-03-22T06:00:32.748Z,7.67
2019-03-22T06:03:01.148Z,7.87
2019-03-22T06:05:29.564Z,7.40
2019-03-22T06:07:57.987Z,7.70
2019-03-22T06:10:26.410Z,7.43
2019-03-22T06:12:54.794Z,8.30
2019-03-22T06:15:23.245Z,8.03
2019-03-22T06:17:52.167Z,8.07
2019-03-22T06:20:20.712Z,6.97
2019-03-22T06:22:49.151Z,6.80
2019-03-22T06:25:17.541Z,7.63
2019-03-22T06:27:45.947Z,7.70
2019-03-22T06:30:14.447Z,7.33
2019-03-22T06:32:42.922Z,7.50
2019-03-22T06:35:11.418Z,7.30
2019-03-22T06:37:39.838Z,7.10
2019-03-22T06:40:08.482Z,7.30
2019-03-22T06:42:36.873Z,7.57
2019-03-22T06:45:07.713Z,7.63
2019-03-22T06:47:36.373Z,7.43
2019-03-22T06:50:07.489Z,7.20
2019-03-22T06:52:36.401Z,7.60
2019-03-22T06:55:06.784Z,7.57
2019-03-22T06:57:35.517Z,7.40
2019-03-22T07:00:07.568Z,7.00
2019-03-22T07:02:36.676Z,7.67
2019-03-22T07:05:08.490Z,8.50
2019-03-22T07:07:37.764Z,7.50
2019-03-22T07:10:07.463Z,7.47
2019-03-22T07:12:36.192Z,6.73
2019-03-22T07:15:06.608Z,6.80
2019-03-22T07:17:35.024Z,6.80
2019-03-22T07:20:05.083Z,6.87
2019-03-22T07:22:33.509Z,6.87
2019-03-22T07:25:02.356Z,6.77
2019-03-22T07:27:30.895Z,6.83
2019-03-22T07:29:59.289Z,6.40
2019-03-22T07:32:27.736Z,6.73
2019-03-22T07:34:56.126Z,6.93
2019-03-22T07:37:24.550Z,7.00
2019-03-22T07:39:53.361Z,7.10
2019-03-22T07:42:21.770Z,7.30
2019-03-22T07:44:50.198Z,6.87
2019-03-22T07:47:18.636Z,7.50
2019-03-22T07:49:47.092Z,8.40
2019-03-22T07:52:15.551Z,6.20
2019-03-22T07:54:43.993Z,7.00
2019-03-22T07:57:12.786Z,6.97
2019-03-22T07:59:41.227Z,6.60
2019-03-22T08:02:09.731Z,6.17
2019-03-22T08:04:38.151Z,7.00
2019-03-22T08:07:06.830Z,6.60
2019-03-22T08:09:35.312Z,6.43
2019-03-22T08:12:03.809Z,6.13
2019-03-22T08:14:32.218Z,6.47
2019-03-22T08:17:00.657Z,6.77
2019-03-22T08:19:29.064Z,6.43
2019-03-22T08:21:57.509Z,6.40
2019-03-22T08:24:25.914Z,7.00
2019-03-22T08:26:54.314Z,6.50
2019-03-22T08:29:22.947Z,6.57
2019-03-22T08:31:51.372Z,7.27
2019-03-22T08:34:19.779Z,6.53
2019-03-22T08:36:48.219Z,6.53
2019-03-22T08:39:16.796Z,6.70
2019-03-22T08:41:45.206Z,6.37
2019-03-22T08:44:13.721Z,6.37
2019-03-22T08:46:44.885Z,6.17
2019-03-22T08:49:12.527Z,6.80
2019-03-22T08:51:41.028Z,6.37
2019-03-22T08:54:09.699Z,6.67
2019-03-22T08:56:38.105Z,6.23
2019-03-22T08:59:06.504Z,6.50
2019-03-22T09:01:35.049Z,6.47
2019-03-22T09:04:03.530Z,6.37
2019-03-22T09:06:32.009Z,6.73
2019-03-22T09:09:00.426Z,6.57
2019-03-22T09:11:28.825Z,6.30
2019-03-22T09:13:57.238Z,6.40
2019-03-22T09:16:25.692Z,6.33
2019-03-22T09:18:54.141Z,6.57
2019-03-22T09:21:22.603Z,6.37
2019-03-22T09:23:51.022Z,6.00
2019-03-22T09:26:20.101Z,5.97
2019-03-22T09:28:48.655Z,5.73
2019-03-22T09:31:17.090Z,6.20
2019-03-22T09:33:45.543Z,5.70
2019-03-22T09:36:13.999Z,5.90
2019-03-22T09:38:42.457Z,5.73
2019-03-22T09:41:10.872Z,6.07
2019-03-22T09:43:39.416Z,6.07
2019-03-22T09:46:07.814Z,5.37
2019-03-22T09:48:36.264Z,5.23
2019-03-22T09:51:04.704Z,5.03
2019-03-22T09:53:33.223Z,5.77
2019-03-22T09:56:01.764Z,5.40
2019-03-22T09:58:30.350Z,5.63
2019-03-22T10:00:58.907Z,5.23
2019-03-22T10:03:27.467Z,5.23
2019-03-22T10:05:55.919Z,5.70
2019-03-22T10:08:24.381Z,5.47
2019-03-22T10:10:52.841Z,5.00
2019-03-22T10:13:21.356Z,4.90
2019-03-22T10:15:49.772Z,5.20
2019-03-22T10:18:18.218Z,5.10
2019-03-22T10:20:46.762Z,5.20
2019-03-22T10:23:15.210Z,5.10
2019-03-22T10:25:44.180Z,4.60
2019-03-22T10:28:12.613Z,5.20
2019-03-22T10:30:41.044Z,5.43
2019-03-22T10:33:21.783Z,5.00
2019-03-22T10:35:39.582Z,4.30
2019-03-22T10:38:16.007Z,4.80
2019-03-22T10:40:38.151Z,4.60
2019-03-22T10:43:06.613Z,4.20
2019-03-22T10:45:35.049Z,4.23
2019-03-22T10:48:03.630Z,3.60
2019-03-22T10:50:32.061Z,4.20
2019-03-22T10:53:00.442Z,4.20
2019-03-22T10:55:30.609Z,3.90
2019-03-22T10:57:59.039Z,4.00
2019-03-22T11:00:27.435Z,4.23
2019-03-22T11:02:55.865Z,4.37
2019-03-22T11:05:24.312Z,4.43
2019-03-22T11:07:52.883Z,4.30
2019-03-22T11:10:21.273Z,4.17
2019-03-22T11:12:49.734Z,4.50
2019-03-22T11:15:18.132Z,4.03
2019-03-22T11:17:46.538Z,4.03
2019-03-22T11:20:16.614Z,4.03
2019-03-22T11:22:45.011Z,4.30
2019-03-22T11:25:14.081Z,4.23
2019-03-22T11:27:42.489Z,4.03
2019-03-22T11:30:14.011Z,4.20
2019-03-22T11:32:42.474Z,4.90
2019-03-22T11:35:11.114Z,4.33
2019-03-22T11:37:39.602Z,4.27
2019-03-22T11:40:10.877Z,4.20
2019-03-22T11:42:39.327Z,4.33
2019-03-22T11:45:10.734Z,4.63
2019-03-22T11:47:39.135Z,4.43
2019-03-22T11:50:09.867Z,4.70
2019-03-22T11:52:38.845Z,4.43
2019-03-22T11:55:10.100Z,4.53
2019-03-22T11:57:38.549Z,4.70
2019-03-22T12:00:22.828Z,5.10
2019-03-22T12:02:51.251Z,4.20
2019-03-22T12:05:21.109Z,4.53
2019-03-22T12:07:49.621Z,4.63
2019-03-22T12:10:20.546Z,4.30
2019-03-22T12:12:49.113Z,5.03
2019-03-22T12:15:22.508Z,4.43
2019-03-22T12:17:50.945Z,4.10
2019-03-22T12:20:20.995Z,4.53
2019-03-22T12:22:49.399Z,4.40
2019-03-22T12:25:22.089Z,4.60
2019-03-22T12:27:50.492Z,4.80
2019-03-22T12:30:19.249Z,5.17
2019-03-22T12:32:47.658Z,4.10
2019-03-22T12:35:17.116Z,4.63
2019-03-22T12:37:45.710Z,4.50
2019-03-22T12:40:21.875Z,3.53
2019-03-22T12:42:50.522Z,4.13
2019-03-22T12:45:30.276Z,4.13
2019-03-22T12:47:58.745Z,4.60
2019-03-22T12:50:27.530Z,4.77
2019-03-22T12:52:56.109Z,4.40
2019-03-22T12:55:24.505Z,4.97
2019-03-22T12:57:52.923Z,4.23
2019-03-22T13:00:23.073Z,4.37
2019-03-22T13:02:51.821Z,4.50
2019-03-22T13:05:20.988Z,4.10
2019-03-22T13:07:49.404Z,4.23
2019-03-22T13:10:28.190Z,6.10
2019-03-22T13:12:56.786Z,4.30
2019-03-22T13:15:25.198Z,4.23
2019-03-22T13:17:53.642Z,4.00
2019-03-22T13:20:22.124Z,4.08
2019-03-22T13:22:50.553Z,4.47
2019-03-22T13:25:21.128Z,4.50
2019-03-22T13:27:49.246Z,4.20
2019-03-22T13:30:35.191Z,5.10
2019-03-22T13:33:04.445Z,5.17
2019-03-22T13:35:33.016Z,4.17
2019-03-22T13:38:01.469Z,4.23
2019-03-22T13:40:29.866Z,4.60
2019-03-22T13:42:58.453Z,3.97
2019-03-22T13:45:26.991Z,3.83
2019-03-22T13:47:55.457Z,3.40
2019-03-22T13:50:24.605Z,3.50
2019-03-22T13:52:53.005Z,3.83
2019-03-22T13:55:21.405Z,3.23
2019-03-22T13:57:49.845Z,3.70
2019-03-22T14:00:19.010Z,4.00
2019-03-22T14:02:47.433Z,3.57
2019-03-22T14:05:15.928Z,3.50
2019-03-22T14:07:44.338Z,3.10
2019-03-22T14:10:30.524Z,3.47
2019-03-22T14:13:00.400Z,3.50
2019-03-22T14:15:28.817Z,3.60
2019-03-22T14:17:58.197Z,3.13
2019-03-22T14:20:26.661Z,3.57
2019-03-22T14:22:55.092Z,3.97
2019-03-22T14:25:23.496Z,3.30
2019-03-22T14:27:52.377Z,3.33
2019-03-22T14:30:20.806Z,3.70
2019-03-22T14:32:49.219Z,3.70
2019-03-22T14:35:17.622Z,3.77
2019-03-22T14:37:46.061Z,4.00
2019-03-22T14:40:15.791Z,3.53
2019-03-22T14:42:44.386Z,3.27
2019-03-22T14:45:13.387Z,3.77
2019-03-22T14:47:41.797Z,3.13
2019-03-22T14:50:10.298Z,3.77
2019-03-22T14:52:39.728Z,3.53
2019-03-22T14:55:08.385Z,3.60
2019-03-22T14:57:36.818Z,3.93
2019-03-22T15:00:06.758Z,3.17
2019-03-22T15:02:35.195Z,3.90
2019-03-22T15:05:04.716Z,4.20
2019-03-22T15:07:33.181Z,3.20
2019-03-22T15:10:01.701Z,3.20
2019-03-22T15:12:30.162Z,3.33
2019-03-22T15:15:16.422Z,3.67
2019-03-22T15:18:04.621Z,3.20
2019-03-22T15:20:34.734Z,3.67
2019-03-22T15:23:10.870Z,3.10
2019-03-22T15:25:57.254Z,3.77
2019-03-22T15:28:43.822Z,3.35
2019-03-22T15:31:16.815Z,3.37
2019-03-22T15:33:49.710Z,3.47
2019-03-22T15:36:31.935Z,3.37
2019-03-22T15:39:14.444Z,3.00
2019-03-22T15:41:43.077Z,3.23
2019-03-22T15:44:11.771Z,3.60
2019-03-22T15:46:40.241Z,3.00
2019-03-22T15:49:08.925Z,3.27
2019-03-22T15:51:37.335Z,3.60
2019-03-22T15:54:05.803Z,3.50
2019-03-22T15:56:34.233Z,2.70
2019-03-22T15:59:02.626Z,2.77
2019-03-22T16:01:31.045Z,2.40
2019-03-22T16:03:59.469Z,2.67
2019-03-22T16:06:27.930Z,2.87
2019-03-22T16:08:56.326Z,3.10
2019-03-22T16:11:24.785Z,2.67
2019-03-22T16:13:53.462Z,3.27
2019-03-22T16:16:21.880Z,3.17
2019-03-22T16:18:53.125Z,2.73
2019-03-22T16:21:23.070Z,3.30
2019-03-22T16:23:51.489Z,3.10
2019-03-22T16:26:19.922Z,2.70
2019-03-22T16:28:48.356Z,3.10
2019-03-22T16:31:16.734Z,2.67
2019-03-22T16:33:53.991Z,3.40
2019-03-22T16:36:15.313Z,2.90
2019-03-22T16:38:44.113Z,3.17
2019-03-22T16:41:12.701Z,2.93
2019-03-22T16:43:41.432Z,2.80
2019-03-22T16:46:09.847Z,2.83
2019-03-22T16:48:38.373Z,3.10
2019-03-22T16:51:06.906Z,3.00
2019-03-22T16:53:35.329Z,3.20
2019-03-22T16:56:04.156Z,3.20
2019-03-22T16:58:32.551Z,6.03
2019-03-22T17:01:00.973Z,5.93
2019-03-22T17:03:29.557Z,3.50
2019-03-22T17:05:57.959Z,3.77
2019-03-22T17:08:26.363Z,4.03
2019-03-22T17:10:54.800Z,7.03
2019-03-22T17:13:23.202Z,4.60
2019-03-22T17:15:51.636Z,3.97
2019-03-22T17:18:20.131Z,3.75
2019-03-22T17:20:48.539Z,4.07
2019-03-22T17:23:16.959Z,5.43
2019-03-22T17:25:45.408Z,5.60
2019-03-22T17:28:13.816Z,4.53
2019-03-22T17:30:42.210Z,4.70
2019-03-22T17:33:10.657Z,10.70
2019-03-22T17:35:39.070Z,17.80
2019-03-22T17:38:07.717Z,16.43
2019-03-22T17:40:36.149Z,10.00
2019-03-22T17:43:04.585Z,6.70
2019-03-22T17:45:32.982Z,5.00
2019-03-22T17:48:01.428Z,5.67
2019-03-22T17:50:29.833Z,5.93
2019-03-22T17:52:58.235Z,4.77
2019-03-22T17:55:26.670Z,4.67
2019-03-22T17:57:55.105Z,5.07
2019-03-22T18:00:25.146Z,5.50
2019-03-22T18:02:53.617Z,5.87
2019-03-22T18:05:22.062Z,10.13
2019-03-22T18:07:50.476Z,10.73
2019-03-22T18:10:18.913Z,7.27
2019-03-22T18:12:47.318Z,5.90
2019-03-22T18:15:16.116Z,6.33
2019-03-22T18:17:44.584Z,5.80
2019-03-22T18:20:16.817Z,5.25
2019-03-22T18:22:51.055Z,4.20
2019-03-22T18:25:19.471Z,4.50
2019-03-22T18:27:47.883Z,3.70
2019-03-22T18:30:16.881Z,4.07
2019-03-22T18:32:45.328Z,4.17
2019-03-22T18:35:13.799Z,4.83
2019-03-22T18:37:42.261Z,5.80
2019-03-22T18:40:15.335Z,6.27
2019-03-22T18:42:43.900Z,6.10
2019-03-22T18:45:13.440Z,5.30
2019-03-22T18:47:43.187Z,4.77
2019-03-22T18:50:13.338Z,4.50
2019-03-22T18:52:41.920Z,4.70
2019-03-22T18:55:10.950Z,4.47
2019-03-22T18:57:40.966Z,4.10
2019-03-22T19:00:16.722Z,4.10
2019-03-22T19:02:45.157Z,4.20
2019-03-22T19:05:14.196Z,3.93
2019-03-22T19:07:42.618Z,4.17
2019-03-22T19:10:12.578Z,4.00
2019-03-22T19:12:41.133Z,4.07
2019-03-22T19:15:11.774Z,4.43
2019-03-22T19:17:40.184Z,4.70
2019-03-22T19:20:10.961Z,4.37
2019-03-22T19:22:39.402Z,4.30
2019-03-22T19:25:08.862Z,5.30
2019-03-22T19:27:37.249Z,5.10
2019-03-22T19:30:08.397Z,5.40
2019-03-22T19:32:36.901Z,5.57
2019-03-22T19:35:07.245Z,5.83
2019-03-22T19:37:35.885Z,5.67
2019-03-22T19:40:09.719Z,6.43
2019-03-22T19:42:38.141Z,7.73
2019-03-22T19:45:09.229Z,7.70
2019-03-22T19:47:37.716Z,7.23
2019-03-22T19:50:08.022Z,8.17
2019-03-22T19:52:36.441Z,8.37
2019-03-22T19:55:10.056Z,7.27
2019-03-22T19:57:38.884Z,7.47
2019-03-22T20:00:10.695Z,6.97
2019-03-22T20:02:39.205Z,6.73
2019-03-22T20:05:08.796Z,7.00
2019-03-22T20:07:37.268Z,6.10
2019-03-22T20:10:10.751Z,5.90
2019-03-22T20:12:39.399Z,5.70
2019-03-22T20:15:10.173Z,5.23
2019-03-22T20:17:38.698Z,5.70
2019-03-22T20:20:09.125Z,5.83
2019-03-22T20:22:37.556Z,5.63
2019-03-22T20:25:09.897Z,6.17
2019-03-22T20:27:38.312Z,6.87
2019-03-22T20:30:12.332Z,5.90
2019-03-22T20:32:40.771Z,5.60
2019-03-22T20:35:16.349Z,7.23
2019-03-22T20:37:39.538Z,6.00
2019-03-22T20:40:10.580Z,6.60
2019-03-22T20:42:39.076Z,6.60
2019-03-22T20:45:07.929Z,5.93
2019-03-22T20:47:36.370Z,6.17
2019-03-22T20:50:09.132Z,6.87
2019-03-22T20:52:37.553Z,6.83
2019-03-22T20:55:09.437Z,6.47
2019-03-22T20:57:37.845Z,6.27
2019-03-22T21:00:08.017Z,6.00
2019-03-22T21:02:36.477Z,6.40
2019-03-22T21:05:05.712Z,6.93
2019-03-22T21:07:34.132Z,6.37
2019-03-22T21:10:02.625Z,6.10
2019-03-22T21:12:31.097Z,6.77
2019-03-22T21:14:59.565Z,6.70
2019-03-22T21:17:28.061Z,6.37
2019-03-22T21:19:56.561Z,6.50
2019-03-22T21:22:26.140Z,6.73
2019-03-22T21:24:54.604Z,6.17
2019-03-22T21:27:23.035Z,7.03
2019-03-22T21:29:51.514Z,7.00
2019-03-22T21:32:19.931Z,6.83
2019-03-22T21:34:48.373Z,6.63
2019-03-22T21:37:16.773Z,6.40
2019-03-22T21:39:45.189Z,6.40
2019-03-22T21:42:13.620Z,6.57
2019-03-22T21:44:42.041Z,7.17
2019-03-22T21:47:11.433Z,6.87
2019-03-22T21:49:39.849Z,6.90
2019-03-22T21:52:08.259Z,7.10
2019-03-22T21:54:37.249Z,6.43
2019-03-22T21:57:06.134Z,6.50
2019-03-22T21:59:35.096Z,5.97
2019-03-22T22:02:03.743Z,6.20
2019-03-22T22:04:32.374Z,6.00
2019-03-22T22:07:00.953Z,6.27
2019-03-22T22:09:29.658Z,6.47
2019-03-22T22:11:58.363Z,5.87
2019-03-22T22:14:26.919Z,6.43
2019-03-22T22:16:55.530Z,6.20
2019-03-22T22:19:24.198Z,6.27
2019-03-22T22:21:52.725Z,5.67
2019-03-22T22:24:21.428Z,6.17
2019-03-22T22:26:50.175Z,6.63
2019-03-22T22:29:19.099Z,6.10
2019-03-22T22:31:47.773Z,5.67
2019-03-22T22:34:16.421Z,6.28
2019-03-22T22:36:45.064Z,6.77
2019-03-22T22:39:13.863Z,7.63
2019-03-22T22:41:42.486Z,7.57
2019-03-22T22:44:11.197Z,7.00
2019-03-22T22:46:39.810Z,7.40
2019-03-22T22:49:08.249Z,7.37
2019-03-22T22:51:37.208Z,7.30
2019-03-22T22:54:05.983Z,7.27
2019-03-22T22:56:34.694Z,7.30
2019-03-22T22:59:03.408Z,6.97
2019-03-22T23:01:32.393Z,7.70
2019-03-22T23:04:01.027Z,7.03
2019-03-22T23:06:30.004Z,7.10
2019-03-22T23:08:58.819Z,6.80
2019-03-22T23:11:27.404Z,6.93
2019-03-22T23:13:56.005Z,6.07
2019-03-22T23:16:24.555Z,7.10
2019-03-22T23:18:53.175Z,6.90
2019-03-22T23:21:21.869Z,6.20
2019-03-22T23:23:50.344Z,6.90
2019-03-22T23:26:20.481Z,7.28
2019-03-22T23:28:49.434Z,7.13
2019-03-22T23:31:18.145Z,6.33
2019-03-22T23:33:47.030Z,6.67
2019-03-22T23:36:20.236Z,6.73
2019-03-22T23:38:46.403Z,7.07
2019-03-22T23:41:15.201Z,5.87
2019-03-22T23:43:44.004Z,6.20
2019-03-22T23:46:12.575Z,5.97
2019-03-22T23:48:41.568Z,6.40
2019-03-22T23:51:10.212Z,6.33
2019-03-22T23:53:39.128Z,6.30
2019-03-22T23:56:08.091Z,5.47
2019-03-22T23:58:37.129Z,5.87
